Time;durP1;ratioP1;P1;durP2;ratioP2;P2;SDS_P1;SDS_P2;PMS_P1;PMS_P2;Temp;Humidity;BMP_temperature;BMP_pressure;BME280_temperature;BME280_humidity;BME280_pressure;Samples;Min_cycle;Max_cycle;Signal;HPM_P1;HPM_P2
2021/09/18 00:02:24;;;;;;;5.95;2.65;;;13.70;99.90;;;;;;5054407;28;20057;-90
2021/09/18 00:04:50;;;;;;;4.68;2.65;;;13.40;99.90;;;;;;5054651;28;20054;-90
2021/09/18 00:07:16;;;;;;;7.97;3.00;;;13.30;99.90;;;;;;5054001;28;20029;-90
2021/09/18 00:09:42;;;;;;;7.25;2.75;;;13.50;99.90;;;;;;5055279;28;20094;-91
2021/09/18 00:12:08;;;;;;;4.72;2.83;;;13.50;99.90;;;;;;5054459;28;20075;-90
2021/09/18 00:14:37;;;;;;;4.68;2.90;;;13.40;99.90;;;;;;5054241;28;20053;-90
2021/09/18 00:17:03;;;;;;;3.53;2.47;;;13.30;99.90;;;;;;5054012;28;20029;-90
2021/09/18 00:19:29;;;;;;;4.03;2.63;;;13.40;99.90;;;;;;5053932;28;20031;-89
2021/09/18 00:21:55;;;;;;;5.32;2.85;;;13.60;99.90;;;;;;5053816;28;20025;-88
2021/09/18 00:24:21;;;;;;;7.25;3.05;;;13.50;99.90;;;;;;5053462;28;20027;-90
2021/09/18 00:26:47;;;;;;;6.28;3.00;;;13.40;99.90;;;;;;5054397;28;20115;-90
2021/09/18 00:29:13;;;;;;;4.57;3.10;;;13.20;99.90;;;;;;5054424;28;20374;-89
2021/09/18 00:31:38;;;;;;;4.38;2.60;;;13.20;99.90;;;;;;5058903;28;20035;-89
2021/09/18 00:34:04;;;;;;;5.07;2.38;;;13.30;99.90;;;;;;5059250;28;20029;-89
2021/09/18 00:36:30;;;;;;;3.88;2.83;;;13.50;99.90;;;;;;5056115;28;20021;-90
2021/09/18 00:38:57;;;;;;;4.72;2.63;;;13.40;99.90;;;;;;5054746;28;20029;-90
2021/09/18 00:41:22;;;;;;;6.03;2.75;;;13.70;99.90;;;;;;5053369;28;20029;-89
2021/09/18 00:43:50;;;;;;;4.97;2.90;;;13.60;99.90;;;;;;5053334;28;20036;-89
2021/09/18 00:46:16;;;;;;;5.78;2.78;;;13.60;99.90;;;;;;5054386;28;20059;-91
2021/09/18 00:48:42;;;;;;;2.28;2.08;;;13.30;99.90;;;;;;5054647;28;20033;-88
2021/09/18 00:51:07;;;;;;;6.03;2.53;;;13.30;99.90;;;;;;5054629;28;20049;-89
2021/09/18 00:53:33;;;;;;;9.20;3.10;;;13.30;99.90;;;;;;5053107;28;20028;-89
2021/09/18 00:56:00;;;;;;;4.05;2.75;;;13.40;99.90;;;;;;5053257;28;20124;-89
2021/09/18 00:58:26;;;;;;;3.92;2.80;;;13.40;99.90;;;;;;5053266;28;20025;-90
2021/09/18 01:00:52;;;;;;;5.30;3.00;;;13.60;99.90;;;;;;5053236;28;20092;-90
2021/09/18 01:03:17;;;;;;;3.20;2.47;;;13.50;99.90;;;;;;5054887;28;20444;-90
2021/09/18 01:05:43;;;;;;;5.70;2.67;;;13.50;99.90;;;;;;5052938;28;20468;-91
2021/09/18 01:08:11;;;;;;;6.25;2.65;;;13.50;99.90;;;;;;5052768;28;20032;-89
2021/09/18 01:10:38;;;;;;;7.03;2.70;;;13.60;99.90;;;;;;5052874;28;20025;-89
2021/09/18 01:13:06;;;;;;;6.40;2.83;;;13.20;99.90;;;;;;5052541;28;20119;-90
2021/09/18 01:15:35;;;;;;;4.95;2.78;;;13.30;99.90;;;;;;5052835;28;20029;-90
2021/09/18 01:18:02;;;;;;;5.85;2.85;;;13.40;99.90;;;;;;5054260;28;20396;-90
2021/09/18 01:20:29;;;;;;;3.95;2.58;;;13.20;99.90;;;;;;5054318;28;20025;-90
2021/09/18 01:22:57;;;;;;;6.00;2.65;;;13.20;99.90;;;;;;5052713;28;20032;-89
2021/09/18 01:25:25;;;;;;;5.53;2.92;;;13.30;99.90;;;;;;5052439;28;20028;-90
2021/09/18 01:27:50;;;;;;;5.85;2.55;;;13.10;99.90;;;;;;5052900;28;20116;-89
2021/09/18 01:30:19;;;;;;;6.32;3.13;;;12.80;99.90;;;;;;5054280;28;20048;-90
2021/09/18 01:32:45;;;;;;;3.38;2.70;;;13.00;99.90;;;;;;5052986;28;20116;-91
2021/09/18 01:35:11;;;;;;;4.03;2.83;;;12.90;99.90;;;;;;5054341;28;20365;-90
2021/09/18 01:37:37;;;;;;;13.85;3.10;;;13.00;99.90;;;;;;5054260;28;20025;-90
2021/09/18 01:40:03;;;;;;;6.55;2.65;;;13.10;99.90;;;;;;5052931;28;20484;-90
2021/09/18 01:42:29;;;;;;;6.28;2.55;;;13.00;99.90;;;;;;5054109;28;20499;-90
2021/09/18 01:44:55;;;;;;;3.13;2.63;;;13.00;99.90;;;;;;5054248;28;20016;-89
2021/09/18 01:47:20;;;;;;;6.10;2.75;;;13.10;99.90;;;;;;5052835;28;20459;-89
2021/09/18 01:49:46;;;;;;;6.55;2.92;;;13.00;99.90;;;;;;5057741;28;20027;-90
2021/09/18 01:52:34;;;;;;;7.03;2.50;;;13.00;99.90;;;;;;5058097;28;20028;-88
2021/09/18 01:55:00;;;;;;;3.78;2.53;;;13.30;99.90;;;;;;5056673;28;20128;-90
2021/09/18 01:57:26;;;;;;;3.15;2.70;;;13.10;99.90;;;;;;5056447;28;20538;-89
2021/09/18 01:59:51;;;;;;;4.57;2.80;;;13.10;99.90;;;;;;5056482;28;20116;-89
2021/09/18 02:02:17;;;;;;;6.28;2.95;;;13.10;99.90;;;;;;5056588;28;20492;-90
2021/09/18 02:04:43;;;;;;;4.45;2.53;;;13.20;99.90;;;;;;5056580;28;20104;-90
2021/09/18 02:07:08;;;;;;;4.38;2.85;;;13.10;99.90;;;;;;5056717;28;20028;-89
2021/09/18 02:09:34;;;;;;;6.90;2.92;;;13.10;99.90;;;;;;5057788;28;20465;-90
2021/09/18 02:12:00;;;;;;;4.18;2.50;;;13.00;99.90;;;;;;5056909;28;20103;-90
2021/09/18 02:14:25;;;;;;;6.40;3.00;;;12.80;99.90;;;;;;5057118;28;20060;-90
2021/09/18 02:16:51;;;;;;;7.53;2.80;;;13.20;99.90;;;;;;5057258;28;20029;-90
2021/09/18 02:19:17;;;;;;;5.40;2.90;;;12.90;99.90;;;;;;5056538;28;20071;-89
2021/09/18 02:21:42;;;;;;;4.25;2.60;;;13.00;99.90;;;;;;5056457;28;20443;-90
2021/09/18 02:24:08;;;;;;;11.32;3.17;;;13.10;99.90;;;;;;5057070;28;20096;-90
2021/09/18 02:26:34;;;;;;;6.22;2.88;;;12.90;99.90;;;;;;5055941;28;20021;-91
2021/09/18 02:28:59;;;;;;;7.53;2.72;;;13.10;99.90;;;;;;5055962;28;20512;-90
2021/09/18 02:31:25;;;;;;;4.20;2.60;;;12.90;99.90;;;;;;5056178;28;20028;-89
2021/09/18 02:33:51;;;;;;;6.22;2.67;;;13.00;99.90;;;;;;5056186;28;20131;-89
2021/09/18 02:36:16;;;;;;;2.72;2.50;;;13.20;99.90;;;;;;5055947;28;20098;-90
2021/09/18 02:38:42;;;;;;;4.68;2.60;;;13.10;99.90;;;;;;5056558;28;20400;-90
2021/09/18 02:41:08;;;;;;;5.80;2.55;;;12.90;99.90;;;;;;5061155;28;20095;-90
2021/09/18 02:43:33;;;;;;;4.05;2.58;;;13.10;99.90;;;;;;5068006;28;20016;-90
2021/09/18 02:45:59;;;;;;;8.20;2.70;;;13.10;99.90;;;;;;5061029;28;20021;-89
2021/09/18 02:48:25;;;;;;;6.47;2.78;;;13.40;99.90;;;;;;5058549;28;20021;-90
2021/09/18 02:50:50;;;;;;;4.97;2.58;;;13.30;99.90;;;;;;5055669;28;20107;-90
2021/09/18 02:53:16;;;;;;;4.00;2.45;;;13.10;99.90;;;;;;5055578;28;20115;-91
2021/09/18 02:55:42;;;;;;;7.85;2.58;;;13.00;99.90;;;;;;5055319;28;20215;-91
2021/09/18 02:58:07;;;;;;;4.43;2.58;;;13.00;99.90;;;;;;5055544;28;20472;-91
2021/09/18 03:00:33;;;;;;;7.32;2.15;;;13.00;99.90;;;;;;5055631;28;20029;-91
2021/09/18 03:02:59;;;;;;;4.75;1.90;;;13.10;99.90;;;;;;5055187;28;20025;-89
2021/09/18 03:05:24;;;;;;;4.93;2.70;;;13.10;99.90;;;;;;5056690;28;20031;-91
2021/09/18 03:07:50;;;;;;;2.90;2.53;;;13.00;99.90;;;;;;5055242;28;20029;-89
2021/09/18 03:10:15;;;;;;;3.00;2.15;;;13.00;99.90;;;;;;5054943;28;20027;-89
2021/09/18 03:12:41;;;;;;;6.80;2.65;;;13.20;99.90;;;;;;5055079;28;20086;-89
2021/09/18 03:15:09;;;;;;;3.40;2.20;;;13.30;99.90;;;;;;5054641;28;20063;-90
2021/09/18 03:17:34;;;;;;;3.75;2.20;;;13.40;99.90;;;;;;5054491;28;20112;-90
2021/09/18 03:20:00;;;;;;;5.03;2.60;;;13.50;99.90;;;;;;5055046;28;20052;-90
2021/09/18 03:22:26;;;;;;;3.95;2.30;;;13.40;99.90;;;;;;5054800;28;20048;-90
2021/09/18 03:24:52;;;;;;;3.25;2.95;;;12.90;99.90;;;;;;5055058;28;20093;-89
2021/09/18 03:27:18;;;;;;;5.78;2.55;;;12.40;99.90;;;;;;5056155;28;20029;-90
2021/09/18 03:29:43;;;;;;;3.20;2.40;;;12.20;99.90;;;;;;5054564;28;20048;-89
2021/09/18 03:32:10;;;;;;;9.57;2.90;;;12.00;99.90;;;;;;5055793;28;20025;-89
2021/09/18 03:34:36;;;;;;;3.17;2.67;;;12.00;99.90;;;;;;5054659;28;20033;-89
2021/09/18 03:37:01;;;;;;;5.05;2.60;;;12.00;99.90;;;;;;5054600;28;20025;-90
2021/09/18 03:39:27;;;;;;;3.45;2.28;;;12.20;99.90;;;;;;5054550;28;20400;-90
2021/09/18 03:41:53;;;;;;;4.15;2.20;;;12.70;99.90;;;;;;5055506;28;20079;-90
2021/09/18 03:44:18;;;;;;;5.72;2.65;;;12.90;99.90;;;;;;5054617;28;20017;-90
2021/09/18 03:46:44;;;;;;;3.05;2.63;;;12.90;99.90;;;;;;5054462;28;20439;-91
2021/09/18 03:49:10;;;;;;;2.42;2.15;;;12.90;99.90;;;;;;5054101;28;20021;-89
2021/09/18 03:51:35;;;;;;;5.72;2.50;;;13.00;99.90;;;;;;5053933;28;20029;-90
2021/09/18 03:54:01;;;;;;;7.50;2.55;;;13.00;99.90;;;;;;5055369;28;20052;-90
2021/09/18 03:56:27;;;;;;;2.88;2.58;;;12.80;99.90;;;;;;5035644;28;20081;-90
2021/09/18 03:58:52;;;;;;;3.30;2.38;;;12.60;99.90;;;;;;5017515;28;20025;-90
2021/09/18 04:01:18;;;;;;;5.47;2.70;;;12.60;99.90;;;;;;5017593;28;20021;-90
2021/09/18 04:03:44;;;;;;;7.07;3.08;;;12.20;99.90;;;;;;5017130;28;20036;-91
2021/09/18 04:06:10;;;;;;;4.15;2.40;;;12.30;99.90;;;;;;5017289;28;20056;-90
2021/09/18 04:08:36;;;;;;;3.67;2.40;;;12.40;99.90;;;;;;5034779;28;20033;-89
2021/09/18 04:11:01;;;;;;;3.28;2.45;;;12.60;99.90;;;;;;5034533;28;20017;-91
2021/09/18 04:13:27;;;;;;;2.63;2.40;;;12.60;99.90;;;;;;5035065;28;20148;-91
2021/09/18 04:15:53;;;;;;;3.88;2.67;;;12.80;99.90;;;;;;5017294;28;20093;-90
2021/09/18 04:18:19;;;;;;;6.25;2.53;;;13.00;99.90;;;;;;5017046;28;20101;-90
2021/09/18 04:20:44;;;;;;;3.30;2.50;;;12.90;99.90;;;;;;5016900;28;20030;-90
2021/09/18 04:23:10;;;;;;;9.45;2.45;;;12.70;99.90;;;;;;5034495;28;20080;-90
2021/09/18 04:25:36;;;;;;;6.95;2.17;;;12.70;99.90;;;;;;5016811;28;20025;-89
2021/09/18 04:28:02;;;;;;;5.07;2.20;;;12.50;99.90;;;;;;5016860;28;20083;-90
2021/09/18 04:30:27;;;;;;;4.95;1.92;;;12.50;99.90;;;;;;5016861;28;20440;-90
2021/09/18 04:32:53;;;;;;;3.25;2.30;;;12.50;99.90;;;;;;5016606;28;20022;-90
2021/09/18 04:35:19;;;;;;;8.48;2.80;;;12.20;99.90;;;;;;5016670;28;20025;-89
2021/09/18 04:37:44;;;;;;;2.40;2.20;;;12.10;99.90;;;;;;5016749;28;20026;-90
2021/09/18 04:40:10;;;;;;;4.30;2.20;;;12.40;99.90;;;;;;5016877;28;20029;-90
2021/09/18 04:42:36;;;;;;;3.28;2.20;;;12.60;99.90;;;;;;5016650;28;20022;-91
2021/09/18 04:45:03;;;;;;;3.33;2.30;;;12.40;99.90;;;;;;5016416;28;20084;-89
2021/09/18 04:47:29;;;;;;;3.58;2.22;;;12.40;99.90;;;;;;5034248;28;20401;-89
2021/09/18 04:49:54;;;;;;;2.75;2.28;;;12.10;99.90;;;;;;5016699;28;20022;-90
2021/09/18 04:52:20;;;;;;;4.50;2.28;;;12.30;99.90;;;;;;5024809;28;20034;-91
2021/09/18 04:54:46;;;;;;;2.75;2.10;;;12.60;99.90;;;;;;5046466;28;20053;-89
2021/09/18 04:57:11;;;;;;;4.25;2.35;;;12.70;99.90;;;;;;5019947;28;20025;-91
2021/09/18 04:59:37;;;;;;;6.60;2.47;;;12.70;99.90;;;;;;5035144;28;20025;-90
2021/09/18 05:02:03;;;;;;;5.13;2.55;;;12.60;99.90;;;;;;5034588;28;20036;-89
2021/09/18 05:04:28;;;;;;;3.47;2.05;;;12.70;99.90;;;;;;5016540;28;20485;-89
2021/09/18 05:06:54;;;;;;;3.53;2.47;;;12.40;99.90;;;;;;5016337;28;20116;-89
2021/09/18 05:09:20;;;;;;;4.30;2.20;;;12.20;99.90;;;;;;5016391;28;20075;-90
2021/09/18 05:11:45;;;;;;;2.67;2.20;;;12.00;99.90;;;;;;5016029;28;20033;-90
2021/09/18 05:14:11;;;;;;;4.00;2.28;;;11.80;99.90;;;;;;5016328;28;20029;-91
2021/09/18 05:16:42;;;;;;;3.42;2.20;;;11.90;99.90;;;;;;5016668;28;20389;-89
2021/09/18 05:19:08;;;;;;;4.05;2.15;;;12.20;99.90;;;;;;5016191;28;20048;-90
2021/09/18 05:21:33;;;;;;;3.85;1.98;;;11.60;99.90;;;;;;5015949;28;20025;-90
2021/09/18 05:23:59;;;;;;;4.15;2.30;;;12.00;99.90;;;;;;5033145;28;20026;-89
2021/09/18 05:26:25;;;;;;;3.67;1.92;;;12.30;99.90;;;;;;5033750;28;20076;-90
2021/09/18 05:28:52;;;;;;;3.30;1.90;;;12.10;99.90;;;;;;5016722;28;20449;-90
2021/09/18 05:31:18;;;;;;;5.13;2.33;;;12.40;99.90;;;;;;5016143;28;20112;-91
2021/09/18 05:33:44;;;;;;;7.60;2.40;;;12.60;99.90;;;;;;5015984;28;20473;-89
2021/09/18 05:36:10;;;;;;;2.60;1.90;;;12.50;99.90;;;;;;5016129;28;20028;-90
2021/09/18 05:38:35;;;;;;;2.83;1.95;;;12.70;99.90;;;;;;5015981;28;20099;-90
2021/09/18 05:41:01;;;;;;;4.07;2.30;;;12.80;99.90;;;;;;5033709;28;20030;-90
2021/09/18 05:43:27;;;;;;;2.92;2.40;;;12.50;99.90;;;;;;5016061;28;20087;-90
2021/09/18 05:45:52;;;;;;;6.50;2.67;;;12.40;99.90;;;;;;5033616;28;20512;-90
2021/09/18 05:48:18;;;;;;;3.10;2.00;;;12.50;99.90;;;;;;5016204;28;20051;-90
2021/09/18 05:50:44;;;;;;;2.15;1.95;;;12.60;99.90;;;;;;5015871;28;20034;-89
2021/09/18 05:53:10;;;;;;;2.38;2.13;;;12.70;99.90;;;;;;5016415;28;20022;-91
2021/09/18 05:55:35;;;;;;;2.58;2.38;;;12.70;99.90;;;;;;5037452;28;20409;-89
2021/09/18 05:58:01;;;;;;;4.07;2.20;;;12.90;99.90;;;;;;5052813;28;20026;-90
2021/09/18 06:00:27;;;;;;;3.15;2.30;;;12.80;99.90;;;;;;5052601;28;20021;-90
2021/09/18 06:02:53;;;;;;;2.88;2.20;;;12.60;99.90;;;;;;5052536;28;20039;-91
2021/09/18 06:05:18;;;;;;;6.55;2.30;;;12.40;99.90;;;;;;5052934;28;20477;-90
2021/09/18 06:07:44;;;;;;;4.70;2.40;;;12.50;99.90;;;;;;5052323;28;20074;-90
2021/09/18 06:10:10;;;;;;;2.58;2.05;;;12.40;99.90;;;;;;5053518;28;20113;-90
2021/09/18 06:12:36;;;;;;;6.82;2.30;;;12.60;99.90;;;;;;5052130;28;20053;-90
2021/09/18 06:15:02;;;;;;;5.55;2.42;;;12.70;99.90;;;;;;5052406;28;20470;-89
2021/09/18 06:17:28;;;;;;;3.65;2.22;;;12.90;99.90;;;;;;5052572;28;20029;-89
2021/09/18 06:19:54;;;;;;;5.65;2.33;;;13.20;99.90;;;;;;5052232;28;20167;-90
2021/09/18 06:22:19;;;;;;;2.03;1.83;;;13.00;99.90;;;;;;5052665;28;20534;-89
2021/09/18 06:24:45;;;;;;;4.22;2.17;;;13.10;99.90;;;;;;5052773;28;20033;-89
2021/09/18 06:27:11;;;;;;;5.55;2.42;;;13.00;99.90;;;;;;5053166;28;20031;-89
2021/09/18 06:29:37;;;;;;;8.68;2.47;;;13.10;99.90;;;;;;5052889;28;20025;-90
2021/09/18 06:32:07;;;;;;;2.40;2.20;;;13.20;99.90;;;;;;5053249;28;20029;-89
2021/09/18 06:34:37;;;;;;;3.03;2.38;;;13.20;99.90;;;;;;5056014;28;20082;-91
2021/09/18 06:37:04;;;;;;;3.83;2.10;;;13.30;99.90;;;;;;5057870;28;20025;-89
2021/09/18 06:39:29;;;;;;;2.65;2.42;;;13.40;99.90;;;;;;5057842;28;20021;-89
2021/09/18 06:41:55;;;;;;;4.28;2.13;;;13.40;99.90;;;;;;5058628;28;20036;-90
2021/09/18 06:44:21;;;;;;;5.20;2.55;;;13.60;99.90;;;;;;5058565;28;20059;-89
2021/09/18 06:46:47;;;;;;;3.38;2.50;;;13.60;99.90;;;;;;5057760;28;20017;-89
2021/09/18 06:49:12;;;;;;;5.65;2.40;;;13.30;99.90;;;;;;5058171;28;20031;-89
2021/09/18 06:51:38;;;;;;;4.38;2.25;;;13.60;99.90;;;;;;5058809;28;20059;-90
2021/09/18 06:54:04;;;;;;;3.95;2.63;;;13.70;99.90;;;;;;5058600;28;20021;-89
2021/09/18 06:56:29;;;;;;;2.60;2.15;;;13.60;99.90;;;;;;5058994;28;20048;-89
2021/09/18 06:58:55;;;;;;;4.22;3.80;;;13.70;99.90;;;;;;5058452;28;20021;-90
2021/09/18 07:01:22;;;;;;;4.88;3.17;;;13.90;99.90;;;;;;5059403;28;20465;-89
2021/09/18 07:03:48;;;;;;;5.50;2.90;;;14.00;99.90;;;;;;5067516;28;20021;-90
2021/09/18 07:06:14;;;;;;;6.25;2.47;;;14.00;99.90;;;;;;5070662;28;20044;-91
2021/09/18 07:08:39;;;;;;;5.68;3.05;;;14.30;99.90;;;;;;5061707;28;20100;-89
2021/09/18 07:11:05;;;;;;;3.13;2.83;;;14.40;99.90;;;;;;5060633;28;20028;-89
2021/09/18 07:13:31;;;;;;;6.38;2.65;;;14.30;99.90;;;;;;5058075;28;20571;-90
2021/09/18 07:15:56;;;;;;;3.85;2.90;;;14.30;99.90;;;;;;5057438;28;20059;-89
2021/09/18 07:18:22;;;;;;;3.45;2.85;;;14.40;99.90;;;;;;5056453;28;20028;-88
2021/09/18 07:20:48;;;;;;;3.47;2.50;;;14.50;99.90;;;;;;5056317;28;20481;-90
2021/09/18 07:23:14;;;;;;;3.83;2.65;;;14.40;99.90;;;;;;5055989;28;20378;-89
2021/09/18 07:25:40;;;;;;;5.10;2.90;;;14.70;99.90;;;;;;5055627;28;20071;-89
2021/09/18 07:28:06;;;;;;;4.43;3.10;;;14.80;99.90;;;;;;5055713;28;20029;-90
2021/09/18 07:30:32;;;;;;;4.18;2.95;;;14.80;99.90;;;;;;5056661;28;20361;-89
2021/09/18 07:32:58;;;;;;;3.78;2.63;;;15.00;99.90;;;;;;5055646;28;20025;-88
2021/09/18 07:35:23;;;;;;;5.15;3.03;;;15.10;99.90;;;;;;5055510;28;20028;-88
2021/09/18 07:37:49;;;;;;;4.43;2.95;;;15.20;99.90;;;;;;5055228;28;20067;-89
2021/09/18 07:40:15;;;;;;;6.63;2.78;;;15.20;99.90;;;;;;5055038;28;20073;-88
2021/09/18 07:42:41;;;;;;;4.63;2.25;;;15.30;99.90;;;;;;5055262;28;20021;-89
2021/09/18 07:45:08;;;;;;;4.35;2.90;;;15.50;99.90;;;;;;5055034;28;20381;-88
2021/09/18 07:47:34;;;;;;;3.38;2.72;;;15.70;99.90;;;;;;5054785;28;20021;-88
2021/09/18 07:50:00;;;;;;;2.60;2.40;;;15.80;99.90;;;;;;5056499;28;20021;-89
2021/09/18 07:52:25;;;;;;;5.20;2.70;;;15.90;99.90;;;;;;5055132;28;20031;-88
2021/09/18 07:54:51;;;;;;;4.85;2.80;;;15.90;99.90;;;;;;5054870;28;20053;-88
2021/09/18 07:57:17;;;;;;;9.35;3.38;;;15.90;99.90;;;;;;5054539;28;20112;-90
2021/09/18 07:59:43;;;;;;;7.22;2.67;;;15.90;99.90;;;;;;5056014;28;20028;-88
2021/09/18 08:02:08;;;;;;;3.65;2.50;;;16.20;99.90;;;;;;5056011;28;20043;-89
2021/09/18 08:04:35;;;;;;;5.38;3.05;;;16.50;99.90;;;;;;5055965;28;20029;-88
2021/09/18 08:07:01;;;;;;;5.57;3.70;;;16.50;99.90;;;;;;5056219;28;20503;-88
2021/09/18 08:09:27;;;;;;;6.25;3.70;;;16.40;99.90;;;;;;5055023;28;20447;-89
2021/09/18 08:11:53;;;;;;;7.45;3.67;;;16.30;99.90;;;;;;5055258;28;20079;-88
2021/09/18 08:14:19;;;;;;;6.13;2.95;;;16.60;99.90;;;;;;5055946;28;20055;-88
2021/09/18 08:16:45;;;;;;;4.30;2.53;;;16.80;99.90;;;;;;5054552;28;20125;-92
2021/09/18 08:19:10;;;;;;;2.80;2.15;;;16.80;99.90;;;;;;5055597;28;20484;-93
2021/09/18 08:21:36;;;;;;;5.97;2.80;;;17.00;99.90;;;;;;5055577;28;20027;-93
2021/09/18 08:24:02;;;;;;;8.02;3.20;;;17.30;99.90;;;;;;5054612;28;20021;-94
2021/09/18 08:26:30;;;;;;;5.93;3.05;;;17.50;99.90;;;;;;5054659;28;20027;-93
2021/09/18 08:29:07;;;;;;;3.63;2.80;;;17.60;99.90;;;;;;5054838;28;20075;-92
2021/09/18 08:31:32;;;;;;;7.22;2.80;;;17.50;99.90;;;;;;5055775;28;20028;-93
2021/09/18 08:33:58;;;;;;;7.57;2.58;;;17.50;99.90;;;;;;5054296;28;20086;-94
2021/09/18 08:36:24;;;;;;;5.28;2.80;;;17.80;99.90;;;;;;5054159;28;20108;-93
2021/09/18 08:38:49;;;;;;;3.85;2.50;;;18.00;99.90;;;;;;5055061;28;20104;-93
2021/09/18 08:41:16;;;;;;;7.78;3.67;;;18.20;99.90;;;;;;5053802;28;20029;-93
2021/09/18 08:43:42;;;;;;;6.43;3.40;;;18.10;99.90;;;;;;5054140;28;20089;-93
2021/09/18 08:46:08;;;;;;;6.10;3.38;;;18.20;99.90;;;;;;5054045;28;20029;-93
2021/09/18 08:48:39;;;;;;;4.70;2.92;;;18.30;99.90;;;;;;5053696;28;20044;-93
2021/09/18 08:51:05;;;;;;;5.85;3.60;;;18.60;99.90;;;;;;5054035;28;20021;-94
2021/09/18 08:53:30;;;;;;;6.32;3.58;;;18.80;99.90;;;;;;5053671;28;20054;-93
2021/09/18 08:55:57;;;;;;;5.47;3.50;;;18.90;99.90;;;;;;5053823;28;20045;-92
2021/09/18 08:58:24;;;;;;;8.18;3.33;;;18.80;99.90;;;;;;5054952;28;20029;-92
2021/09/18 09:00:55;;;;;;;9.18;4.30;;;19.10;99.90;;;;;;5053389;28;20035;-94
2021/09/18 09:03:26;;;;;;;6.05;3.67;;;19.20;99.90;;;;;;5053944;28;20086;-94
2021/09/18 09:06:19;;;;;;;4.25;3.17;;;19.30;99.90;;;;;;5058715;28;20025;-92
2021/09/18 09:08:56;;;;;;;7.78;3.83;;;19.40;99.90;;;;;;5059725;28;20542;-92
2021/09/18 09:11:27;;;;;;;4.82;3.40;;;19.50;99.90;;;;;;5055436;28;20013;-93
2021/09/18 09:13:58;;;;;;;6.43;4.50;;;19.70;99.90;;;;;;5055128;28;20067;-94
2021/09/18 09:16:24;;;;;;;3.63;3.05;;;19.50;99.90;;;;;;5054683;28;20108;-93
2021/09/18 09:18:50;;;;;;;6.18;3.70;;;19.70;99.90;;;;;;5053241;28;20089;-93
2021/09/18 09:21:18;;;;;;;6.97;3.45;;;19.90;99.90;;;;;;5054062;28;20098;-93
2021/09/18 09:23:44;;;;;;;4.80;3.55;;;20.00;99.90;;;;;;5054772;28;20021;-93
2021/09/18 09:26:14;;;;;;;6.10;3.60;;;20.10;99.90;;;;;;5058197;28;20028;-93
2021/09/18 09:28:42;;;;;;;6.85;3.60;;;20.10;99.90;;;;;;5057704;28;20035;-93
2021/09/18 09:31:14;;;;;;;11.30;4.65;;;20.10;99.90;;;;;;5054087;28;20021;-92
2021/09/18 09:34:11;;;;;;;7.85;5.00;;;20.00;99.90;;;;;;5055104;28;20035;-93
2021/09/18 09:36:46;;;;;;;4.80;4.20;;;20.00;99.90;;;;;;5053856;28;20029;-93
2021/09/18 09:39:18;;;;;;;6.18;4.28;;;20.20;99.90;;;;;;5052856;28;20033;-91
2021/09/18 09:41:47;;;;;;;10.80;3.97;;;20.20;99.90;;;;;;5053599;28;20021;-94
2021/09/18 09:44:16;;;;;;;7.30;3.38;;;20.50;99.90;;;;;;5056226;28;20145;-92
2021/09/18 09:46:42;;;;;;;12.45;3.90;;;20.70;99.90;;;;;;5053663;28;20108;-93
2021/09/18 09:49:15;;;;;;;6.32;4.32;;;20.80;99.90;;;;;;5055368;28;20017;-91
2021/09/18 09:51:42;;;;;;;5.53;4.32;;;20.80;99.90;;;;;;5054183;28;20040;-92
2021/09/18 09:54:18;;;;;;;3.85;3.45;;;20.90;99.90;;;;;;5054026;28;20025;-92
2021/09/18 09:56:44;;;;;;;6.70;4.25;;;20.90;99.90;;;;;;5053513;28;20049;-90
2021/09/18 09:59:10;;;;;;;4.40;3.67;;;21.20;99.90;;;;;;5053929;28;20078;-94
2021/09/18 10:01:36;;;;;;;4.88;3.72;;;21.40;99.90;;;;;;5056682;28;20025;-95
2021/09/18 10:04:02;;;;;;;4.35;3.90;;;21.50;99.90;;;;;;5056283;28;20067;-94
2021/09/18 10:06:29;;;;;;;5.50;2.53;;;21.60;99.90;;;;;;5056648;28;20021;-94
2021/09/18 10:08:57;;;;;;;2.42;2.22;;;21.90;99.90;;;;;;5057840;28;20028;-94
2021/09/18 10:11:30;;;;;;;2.85;1.60;;;21.90;99.90;;;;;;5062717;28;20036;-94
2021/09/18 10:13:58;;;;;;;1.77;1.55;;;21.90;99.90;;;;;;5061473;28;20025;-94
2021/09/18 10:16:26;;;;;;;2.20;1.55;;;21.90;99.90;;;;;;5058807;28;20032;-93
2021/09/18 10:18:56;;;;;;;1.50;1.40;;;22.20;99.90;;;;;;5057578;28;20051;-91
2021/09/18 10:24:08;;;;;;;3.85;1.50;;;22.60;99.90;;;;;;5059374;28;20064;-94
2021/09/18 10:26:34;;;;;;;3.25;1.27;;;22.80;99.90;;;;;;5058529;28;20025;-94
2021/09/18 10:29:02;;;;;;;3.97;1.05;;;23.00;99.90;;;;;;5060982;28;20480;-93
2021/09/18 10:31:28;;;;;;;3.05;1.60;;;23.20;99.90;;;;;;5057178;28;20495;-93
2021/09/18 10:33:54;;;;;;;1.85;1.35;;;23.20;99.90;;;;;;5057339;28;20021;-92
2021/09/18 10:36:40;;;;;;;2.60;1.50;;;23.20;99.90;;;;;;5056168;28;20032;-93
2021/09/18 10:39:18;;;;;;;1.65;1.20;;;23.40;99.90;;;;;;5058004;28;20025;-93
2021/09/18 10:41:46;;;;;;;2.40;1.40;;;23.50;99.90;;;;;;5058604;28;20033;-92
2021/09/18 10:44:13;;;;;;;3.55;1.40;;;23.90;99.90;;;;;;5056917;28;20496;-92
2021/09/18 10:46:47;;;;;;;1.75;1.38;;;24.00;99.90;;;;;;5058366;28;20028;-92
2021/09/18 10:49:34;;;;;;;2.95;1.25;;;23.80;99.90;;;;;;5061403;28;20032;-92
2021/09/18 10:52:23;;;;;;;2.35;1.40;;;24.00;99.90;;;;;;5060320;28;20029;-91
2021/09/18 10:55:09;;;;;;;1.92;1.15;;;24.50;99.90;;;;;;5053364;28;20041;-90
2021/09/18 10:57:38;;;;;;;1.30;0.98;;;24.50;99.90;;;;;;5036216;28;20025;-88
2021/09/18 11:00:22;;;;;;;1.98;1.27;;;24.60;99.90;;;;;;5018878;28;20029;-88
2021/09/18 11:02:48;;;;;;;;;;;24.60;99.90;;;;;;5036612;28;20032;-88
2021/09/18 11:05:42;;;;;;;1.75;1.27;;;24.80;99.90;;;;;;5018642;28;19905;-89
2021/09/18 11:08:13;;;;;;;1.25;1.13;;;24.60;99.90;;;;;;5018383;28;20026;-88
2021/09/18 11:10:45;;;;;;;2.42;1.42;;;24.80;99.90;;;;;;5018049;28;20512;-88
2021/09/18 11:13:11;;;;;;;1.30;1.13;;;25.20;99.50;;;;;;5018392;28;20056;-89
2021/09/18 11:15:39;;;;;;;2.40;1.40;;;25.40;98.70;;;;;;5018444;28;20481;-88
2021/09/18 11:18:16;;;;;;;1.75;1.10;;;25.50;99.10;;;;;;5027723;28;20029;-89
2021/09/18 11:20:43;;;;;;;1.58;0.95;;;25.70;97.40;;;;;;5037290;28;20026;-88
2021/09/18 11:23:10;;;;;;;1.88;1.27;;;25.40;97.30;;;;;;5017980;28;20026;-88
2021/09/18 11:25:43;;;;;;;1.42;1.05;;;26.00;98.00;;;;;;5018078;28;20024;-88
2021/09/18 11:28:14;;;;;;;2.45;1.20;;;26.00;97.80;;;;;;5017727;28;20076;-89
2021/09/18 11:30:50;;;;;;;1.77;1.30;;;25.90;97.80;;;;;;5017993;28;20085;-88
2021/09/18 11:33:21;;;;;;;4.30;1.23;;;26.00;97.10;;;;;;5018260;28;20030;-88
2021/09/18 11:36:05;;;;;;;1.40;1.20;;;26.50;96.80;;;;;;5017983;28;20029;-89
2021/09/18 11:38:33;;;;;;;2.35;1.50;;;26.80;96.10;;;;;;5035316;28;20401;-89
2021/09/18 11:41:07;;;;;;;1.10;1.00;;;26.80;95.00;;;;;;5035089;28;20508;-89
2021/09/18 11:43:34;;;;;;;2.03;1.10;;;27.30;94.70;;;;;;5017364;28;20489;-89
2021/09/18 11:46:00;;;;;;;2.78;1.30;;;27.20;94.80;;;;;;5017275;28;20366;-89
2021/09/18 11:48:29;;;;;;;1.70;1.20;;;27.20;94.40;;;;;;5017289;28;20084;-88
2021/09/18 11:50:55;;;;;;;3.58;1.25;;;26.90;95.00;;;;;;5017201;28;20052;-88
2021/09/18 11:53:21;;;;;;;1.50;1.20;;;26.50;95.40;;;;;;5017090;28;20051;-88
2021/09/18 11:55:52;;;;;;;1.48;1.00;;;26.90;93.70;;;;;;5037088;28;20118;-88
2021/09/18 11:58:20;;;;;;;2.45;0.90;;;27.10;92.90;;;;;;5053408;28;20032;-88
2021/09/18 12:00:57;;;;;;;2.85;1.30;;;27.30;91.30;;;;;;5053368;28;20033;-88
2021/09/18 12:03:26;;;;;;;2.45;1.08;;;27.30;92.60;;;;;;5053768;28;20499;-88
2021/09/18 12:06:00;;;;;;;4.35;1.27;;;27.50;93.00;;;;;;5054638;28;20086;-88
2021/09/18 12:08:31;;;;;;;1.33;1.00;;;27.80;91.00;;;;;;5053491;28;20025;-89
2021/09/18 12:11:08;;;;;;;2.05;1.05;;;28.40;90.00;;;;;;5053367;28;20025;-89
2021/09/18 12:13:42;;;;;;;1.55;1.08;;;28.60;87.70;;;;;;5053142;28;20435;-86
2021/09/18 12:16:09;;;;;;;1.60;0.80;;;28.50;90.20;;;;;;5054482;28;20436;-89
2021/09/18 12:18:42;;;;;;;1.75;1.05;;;28.50;89.40;;;;;;5052996;28;20033;-88
2021/09/18 12:21:30;;;;;;;1.60;1.10;;;28.90;85.90;;;;;;5053016;28;20036;-88
2021/09/18 12:24:07;;;;;;;2.45;1.00;;;28.40;84.30;;;;;;5054685;28;20025;-88
2021/09/18 12:26:36;;;;;;;1.17;0.85;;;29.20;84.10;;;;;;5053009;28;20025;-89
2021/09/18 12:29:13;;;;;;;1.50;1.00;;;29.30;82.30;;;;;;5054878;28;20025;-89
2021/09/18 12:31:41;;;;;;;1.73;0.98;;;29.20;81.30;;;;;;5053498;28;20029;-89
2021/09/18 12:34:18;;;;;;;5.30;1.02;;;28.60;79.80;;;;;;5053205;28;20028;-89
2021/09/18 12:36:46;;;;;;;3.03;1.00;;;29.20;79.20;;;;;;5052771;28;20032;-89
2021/09/18 12:39:13;;;;;;;1.35;0.88;;;29.20;79.60;;;;;;5052691;28;20021;-86
2021/09/18 12:41:41;;;;;;;1.58;0.93;;;29.80;77.00;;;;;;5052943;28;20466;-88
2021/09/18 12:44:13;;;;;;;1.00;0.70;;;30.00;76.80;;;;;;5052586;28;20025;-88
2021/09/18 12:46:49;;;;;;;0.90;0.75;;;30.50;73.30;;;;;;5052608;28;20025;-89
2021/09/18 12:49:16;;;;;;;1.60;0.95;;;28.90;76.90;;;;;;5052490;28;20032;-88
2021/09/18 12:51:44;;;;;;;2.30;0.90;;;29.10;78.90;;;;;;5052642;28;20048;-93
2021/09/18 12:54:21;;;;;;;1.50;0.77;;;29.20;75.80;;;;;;5052902;28;20028;-91